createdAt,value
2022-08-30T00:01:14.091Z,5.68
2022-08-30T00:03:46.738Z,7.75
2022-08-30T00:06:15.927Z,10.98
2022-08-30T00:08:44.825Z,6.05
2022-08-30T00:11:14.635Z,8.18
2022-08-30T00:13:44.673Z,8.25
2022-08-30T00:16:12.699Z,5.85
2022-08-30T00:18:40.894Z,10.63
2022-08-30T00:21:09.088Z,5.82
2022-08-30T00:23:36.458Z,6.32
2022-08-30T00:26:03.965Z,3.50
2022-08-30T00:28:32.061Z,2.83
2022-08-30T00:31:00.230Z,8.82
2022-08-30T00:33:27.117Z,5.75
2022-08-30T00:35:54.008Z,6.05
2022-08-30T00:38:21.927Z,5.43
2022-08-30T00:40:49.773Z,4.10
2022-08-30T00:43:25.772Z,3.50
2022-08-30T00:45:55.682Z,6.30
2022-08-30T00:48:23.445Z,4.70
2022-08-30T00:50:54.869Z,3.50
2022-08-30T00:53:25.670Z,4.03
2022-08-30T00:55:54.618Z,3.10
2022-08-30T00:58:28.513Z,4.65
2022-08-30T01:00:58.622Z,3.25
2022-08-30T01:03:26.622Z,4.15
2022-08-30T01:05:54.111Z,3.28
2022-08-30T01:08:22.340Z,4.75
2022-08-30T01:16:10.446Z,5.55
2022-08-30T01:18:39.640Z,3.28
2022-08-30T01:21:34.553Z,4.82
2022-08-30T01:24:02.921Z,3.08
2022-08-30T01:26:30.789Z,5.35
2022-08-30T01:29:03.955Z,3.60
2022-08-30T01:31:30.964Z,5.15
2022-08-30T01:33:57.766Z,4.07
2022-08-30T01:36:25.153Z,7.80
2022-08-30T01:38:55.708Z,3.42
2022-08-30T01:41:29.691Z,6.72
2022-08-30T01:43:59.103Z,4.70
2022-08-30T01:46:29.731Z,3.35
2022-08-30T01:48:58.761Z,2.78
2022-08-30T01:51:27.881Z,6.00
2022-08-30T01:53:55.276Z,5.38
2022-08-30T01:56:23.317Z,3.95
2022-08-30T01:58:51.389Z,3.42
2022-08-30T02:01:20.460Z,5.03
2022-08-30T02:03:48.456Z,2.92
2022-08-30T02:06:19.186Z,5.75
2022-08-30T02:08:46.704Z,3.88
2022-08-30T02:11:14.638Z,4.38
2022-08-30T02:13:43.141Z,4.38
2022-08-30T02:16:14.148Z,4.68
2022-08-30T02:18:41.469Z,4.68
2022-08-30T02:21:09.813Z,4.35
2022-08-30T02:23:37.400Z,10.30
2022-08-30T02:26:05.447Z,4.90
2022-08-30T02:28:34.293Z,3.78
2022-08-30T02:31:02.201Z,2.60
2022-08-30T02:33:29.228Z,6.03
2022-08-30T02:35:56.481Z,3.90
2022-08-30T02:38:24.241Z,5.53
2022-08-30T02:40:51.932Z,8.13
2022-08-30T02:43:19.454Z,4.63
2022-08-30T02:45:46.911Z,4.63
2022-08-30T02:48:13.977Z,5.20
2022-08-30T02:50:45.602Z,5.10
2022-08-30T02:53:16.134Z,6.05
2022-08-30T02:55:43.528Z,3.90
2022-08-30T02:58:11.036Z,3.30
2022-08-30T03:00:38.793Z,8.75
2022-08-30T03:03:07.408Z,7.22
2022-08-30T03:05:35.104Z,6.32
2022-08-30T03:08:04.784Z,3.85
2022-08-30T03:10:31.944Z,7.75
2022-08-30T03:12:59.158Z,10.27
2022-08-30T03:15:26.484Z,5.47
2022-08-30T03:17:54.881Z,5.93
2022-08-30T03:20:23.139Z,3.75
2022-08-30T03:22:50.111Z,5.30
2022-08-30T03:25:17.068Z,4.38
2022-08-30T03:27:44.054Z,4.88
2022-08-30T03:30:11.473Z,4.35
2022-08-30T03:32:39.436Z,3.85
2022-08-30T03:35:07.118Z,12.60
2022-08-30T03:37:35.230Z,3.88
2022-08-30T03:40:04.073Z,3.80
2022-08-30T03:42:30.940Z,4.50
2022-08-30T03:44:58.660Z,4.22
2022-08-30T03:47:25.958Z,5.32
2022-08-30T03:49:52.811Z,5.63
2022-08-30T03:52:19.576Z,5.72
2022-08-30T03:54:46.405Z,6.18
2022-08-30T03:57:19.685Z,3.08
2022-08-30T03:59:47.189Z,6.15
2022-08-30T04:02:14.133Z,6.57
2022-08-30T04:04:40.896Z,7.60
2022-08-30T04:07:08.062Z,7.65
2022-08-30T04:09:35.370Z,5.15
2022-08-30T04:12:02.426Z,9.55
2022-08-30T04:14:29.183Z,6.18
2022-08-30T04:16:55.931Z,5.35
2022-08-30T04:19:23.099Z,7.85
2022-08-30T04:21:50.081Z,13.43
2022-08-30T04:29:47.737Z,7.57
2022-08-30T04:32:16.227Z,7.20
2022-08-30T04:34:43.536Z,4.80
2022-08-30T04:37:10.321Z,5.65
2022-08-30T04:39:37.893Z,5.13
2022-08-30T04:42:05.184Z,6.43
2022-08-30T04:47:09.710Z,5.90
2022-08-30T04:49:36.720Z,9.45
2022-08-30T04:52:06.381Z,3.83
2022-08-30T04:54:33.242Z,10.93
2022-08-30T04:57:00.890Z,5.20
2022-08-30T04:59:28.766Z,5.85
2022-08-30T05:10:01.556Z,5.97
2022-08-30T05:12:28.921Z,5.43
2022-08-30T05:14:58.515Z,5.72
2022-08-30T05:17:26.259Z,5.65
2022-08-30T05:19:53.908Z,7.43
2022-08-30T05:38:54.635Z,5.55
2022-08-30T05:41:27.165Z,7.95
2022-08-30T05:50:10.991Z,7.82
2022-08-30T05:55:37.521Z,5.25
2022-08-30T06:01:34.994Z,4.45
2022-08-30T06:04:04.408Z,5.50
2022-08-30T06:06:35.561Z,10.50
2022-08-30T06:09:05.143Z,5.55
2022-08-30T06:14:10.042Z,5.35
2022-08-30T06:16:39.493Z,5.35
2022-08-30T06:19:12.868Z,5.55
2022-08-30T06:21:40.725Z,5.30
2022-08-30T06:27:06.491Z,5.28
2022-08-30T06:29:33.629Z,5.97
2022-08-30T06:32:00.933Z,3.90
2022-08-30T06:34:28.360Z,7.00
2022-08-30T06:36:55.798Z,2.80
2022-08-30T06:39:23.022Z,5.32
2022-08-30T06:41:50.733Z,4.70
2022-08-30T06:44:17.904Z,3.90
2022-08-30T06:46:49.743Z,3.58
2022-08-30T06:51:54.142Z,4.25
2022-08-30T06:54:21.827Z,3.83
2022-08-30T07:05:05.859Z,4.10
2022-08-30T07:12:53.819Z,2.20
2022-08-30T07:15:23.203Z,3.25
2022-08-30T07:18:09.700Z,10.05
2022-08-30T07:30:07.394Z,7.07
2022-08-30T07:35:12.430Z,2.45
2022-08-30T07:37:40.223Z,4.15
2022-08-30T07:49:46.682Z,5.50
2022-08-30T07:55:03.273Z,5.70
2022-08-30T08:13:55.864Z,1.90
2022-08-30T08:16:32.180Z,3.08
2022-08-30T08:18:59.655Z,2.47
2022-08-30T08:32:18.143Z,8.20
2022-08-30T08:34:45.552Z,4.30
2022-08-30T08:37:12.726Z,3.78
2022-08-30T08:39:39.780Z,4.03
2022-08-30T08:42:29.906Z,4.60
2022-08-30T08:45:00.345Z,4.05
2022-08-30T08:47:31.234Z,3.33
2022-08-30T08:50:03.195Z,3.40
2022-08-30T08:53:25.016Z,2.97
2022-08-30T08:55:58.244Z,3.65
2022-08-30T08:58:41.716Z,4.97
2022-08-30T09:01:10.780Z,2.40
2022-08-30T09:03:38.026Z,9.05
2022-08-30T09:06:32.619Z,4.40
2022-08-30T09:08:59.784Z,5.00
2022-08-30T09:17:10.297Z,2.38
2022-08-30T09:19:54.441Z,7.97
2022-08-30T09:22:26.675Z,3.40
2022-08-30T09:25:00.889Z,2.95
2022-08-30T09:27:32.881Z,3.90
2022-08-30T09:32:41.014Z,2.63
2022-08-30T09:35:18.301Z,3.10
2022-08-30T09:38:04.423Z,3.38
2022-08-30T09:40:39.690Z,5.25
2022-08-30T09:48:38.656Z,3.08
2022-08-30T09:54:25.462Z,2.72
2022-08-30T09:57:12.975Z,2.70
2022-08-30T10:00:02.658Z,3.80
2022-08-30T10:03:02.494Z,2.00
2022-08-30T10:05:56.824Z,4.10
2022-08-30T10:08:36.521Z,2.78
2022-08-30T10:11:31.751Z,2.15
2022-08-30T10:18:25.752Z,6.75
2022-08-30T10:23:51.715Z,4.72
2022-08-30T10:26:48.808Z,2.50
2022-08-30T10:29:25.711Z,3.40
2022-08-30T10:34:49.096Z,2.03
2022-08-30T10:37:21.956Z,5.47
2022-08-30T10:40:38.591Z,4.38
2022-08-30T10:43:13.836Z,2.22
2022-08-30T10:45:44.961Z,2.63
2022-08-30T10:48:28.977Z,2.33
2022-08-30T10:51:02.656Z,1.92
2022-08-30T10:56:34.122Z,1.90
2022-08-30T10:59:04.083Z,3.28
2022-08-30T11:01:47.185Z,2.47
2022-08-30T11:09:47.428Z,1.98
2022-08-30T11:12:51.961Z,2.78
2022-08-30T11:15:26.443Z,3.03
2022-08-30T11:18:02.385Z,3.60
2022-08-30T11:20:50.133Z,3.70
2022-08-30T11:23:34.123Z,3.95
2022-08-30T11:26:20.262Z,2.60
2022-08-30T11:28:48.294Z,2.70
2022-08-30T11:31:18.474Z,1.92
2022-08-30T11:33:48.434Z,2.55
2022-08-30T11:36:37.894Z,1.63
2022-08-30T11:39:06.958Z,1.58
2022-08-30T11:41:34.651Z,1.73
2022-08-30T11:44:14.611Z,1.80
2022-08-30T11:46:42.630Z,1.50
2022-08-30T11:49:15.514Z,2.05
2022-08-30T11:52:23.880Z,1.88
2022-08-30T11:55:17.497Z,0.95
2022-08-30T11:57:52.825Z,2.35
2022-08-30T12:00:39.692Z,1.65
2022-08-30T12:03:30.222Z,1.23
2022-08-30T12:06:01.429Z,1.58
2022-08-30T12:08:28.595Z,1.25
2022-08-30T12:10:58.990Z,4.15
2022-08-30T12:13:35.296Z,1.02
2022-08-30T12:16:09.381Z,1.63
2022-08-30T12:18:39.446Z,2.03
2022-08-30T12:21:22.514Z,0.88
2022-08-30T12:24:04.533Z,0.85
2022-08-30T12:26:36.136Z,1.10
2022-08-30T12:29:12.943Z,1.67
2022-08-30T12:31:55.923Z,1.33
2022-08-30T12:34:50.340Z,1.80
2022-08-30T12:37:30.149Z,1.38
2022-08-30T12:40:15.281Z,1.33
2022-08-30T12:42:52.333Z,1.42
2022-08-30T12:45:21.800Z,1.20
2022-08-30T12:47:51.687Z,1.13
2022-08-30T12:50:23.293Z,0.93
2022-08-30T12:53:01.599Z,4.57
2022-08-30T12:55:32.820Z,0.70
2022-08-30T12:58:04.509Z,2.15
2022-08-30T13:00:40.553Z,1.10
2022-08-30T13:03:36.816Z,3.50
2022-08-30T13:06:07.405Z,1.98
2022-08-30T13:08:37.474Z,2.67
2022-08-30T13:11:08.516Z,4.93
2022-08-30T13:13:37.956Z,1.27
2022-08-30T13:16:26.501Z,1.63
2022-08-30T13:19:22.591Z,1.48
2022-08-30T13:21:55.784Z,1.80
2022-08-30T13:24:25.726Z,2.22
2022-08-30T13:27:01.677Z,2.42
2022-08-30T13:29:29.326Z,1.60
2022-08-30T13:31:56.869Z,2.28
2022-08-30T13:34:23.745Z,1.48
2022-08-30T13:36:56.587Z,2.75
2022-08-30T13:39:23.692Z,1.90
2022-08-30T13:41:51.919Z,1.65
2022-08-30T13:44:19.374Z,8.38
2022-08-30T13:46:54.121Z,1.55
2022-08-30T13:49:48.123Z,1.77
2022-08-30T13:52:21.778Z,3.63
2022-08-30T13:54:54.139Z,1.40
2022-08-30T14:00:17.581Z,1.25
2022-08-30T14:02:51.630Z,1.73
2022-08-30T14:10:59.008Z,1.15
2022-08-30T14:13:29.139Z,1.48
2022-08-30T14:18:46.529Z,2.10
2022-08-30T14:21:13.995Z,3.70
2022-08-30T14:23:40.834Z,2.00
2022-08-30T14:26:17.236Z,0.90
2022-08-30T14:28:44.943Z,1.15
2022-08-30T14:31:12.783Z,1.10
2022-08-30T14:33:40.169Z,1.85
2022-08-30T14:36:12.499Z,1.00
2022-08-30T14:38:43.589Z,3.53
2022-08-30T14:41:11.031Z,2.03
2022-08-30T14:43:40.655Z,1.83
2022-08-30T14:46:08.979Z,1.38
2022-08-30T14:48:38.586Z,2.33
2022-08-30T14:51:17.428Z,1.23
2022-08-30T14:53:45.736Z,1.13
2022-08-30T14:56:16.384Z,1.42
2022-08-30T14:58:43.328Z,2.75
2022-08-30T15:01:12.444Z,2.15
2022-08-30T15:03:40.970Z,1.83
2022-08-30T15:06:09.694Z,3.22
2022-08-30T15:08:38.185Z,1.90
2022-08-30T15:11:12.061Z,5.43
2022-08-30T15:13:40.721Z,1.98
2022-08-30T15:16:12.310Z,1.50
2022-08-30T15:18:39.363Z,1.30
2022-08-30T15:21:08.903Z,1.10
2022-08-30T15:23:36.849Z,3.78
2022-08-30T15:26:04.340Z,1.92
2022-08-30T15:28:31.622Z,2.55
2022-08-30T15:30:58.789Z,6.22
2022-08-30T15:33:25.869Z,2.40
2022-08-30T15:35:52.965Z,2.83
2022-08-30T15:38:21.865Z,3.72
2022-08-30T15:40:50.060Z,2.90
2022-08-30T15:43:17.543Z,4.07
2022-08-30T15:45:44.592Z,1.60
2022-08-30T15:48:12.342Z,3.50
2022-08-30T15:50:39.341Z,2.08
2022-08-30T15:53:07.621Z,2.55
2022-08-30T15:55:34.668Z,1.90
2022-08-30T15:58:01.800Z,2.42
2022-08-30T16:00:29.220Z,2.40
2022-08-30T16:02:56.118Z,9.02
2022-08-30T16:05:23.744Z,4.30
2022-08-30T16:07:52.378Z,4.93
2022-08-30T16:10:19.539Z,3.58
2022-08-30T16:12:46.761Z,7.60
2022-08-30T16:15:14.412Z,2.90
2022-08-30T16:17:41.370Z,2.90
2022-08-30T16:20:09.527Z,3.65
2022-08-30T16:22:38.851Z,3.35
2022-08-30T16:25:12.596Z,3.03
2022-08-30T16:27:43.037Z,2.58
2022-08-30T16:30:11.974Z,5.93
2022-08-30T16:32:39.783Z,3.40
2022-08-30T16:35:07.936Z,2.47
2022-08-30T16:37:35.860Z,2.25
2022-08-30T16:40:04.677Z,3.65
2022-08-30T16:42:33.675Z,4.85
2022-08-30T16:45:02.494Z,5.53
2022-08-30T16:47:37.349Z,3.60
2022-08-30T16:50:05.069Z,5.38
2022-08-30T16:52:32.260Z,4.85
2022-08-30T16:54:59.412Z,5.80
2022-08-30T16:57:26.548Z,2.83
2022-08-30T16:59:55.382Z,3.38
2022-08-30T17:02:24.010Z,5.05
2022-08-30T17:04:53.189Z,12.50
2022-08-30T17:09:57.516Z,4.25
2022-08-30T17:12:24.952Z,7.15
2022-08-30T17:17:29.248Z,3.45
2022-08-30T17:19:56.856Z,8.10
2022-08-30T17:22:23.763Z,5.18
2022-08-30T17:24:53.082Z,4.03
2022-08-30T17:27:20.048Z,6.88
2022-08-30T17:29:48.050Z,6.43
2022-08-30T17:32:14.796Z,3.75
2022-08-30T17:34:41.975Z,6.18
2022-08-30T17:37:09.074Z,6.35
2022-08-30T17:39:36.828Z,7.03
2022-08-30T17:42:04.599Z,8.48
2022-08-30T17:44:34.332Z,10.15
2022-08-30T17:47:01.580Z,7.10
2022-08-30T17:49:29.334Z,8.85
2022-08-30T17:51:58.817Z,4.03
2022-08-30T17:54:27.463Z,5.72
2022-08-30T17:56:54.847Z,8.73
2022-08-30T17:59:24.797Z,10.82
2022-08-30T18:01:53.314Z,12.10
2022-08-30T18:04:20.536Z,9.63
2022-08-30T18:06:48.085Z,5.80
2022-08-30T18:09:16.958Z,6.30
2022-08-30T18:11:43.752Z,6.22
2022-08-30T18:14:12.736Z,7.57
2022-08-30T18:16:47.468Z,4.97
2022-08-30T18:19:20.611Z,9.82
2022-08-30T18:21:47.706Z,6.50
2022-08-30T18:24:16.654Z,8.60
2022-08-30T18:26:43.512Z,11.93
2022-08-30T18:29:10.629Z,8.93
2022-08-30T18:31:37.712Z,18.63
2022-08-30T18:34:04.688Z,17.27
2022-08-30T18:36:34.127Z,13.25
2022-08-30T18:39:01.217Z,14.77
2022-08-30T18:41:28.249Z,9.27
2022-08-30T18:44:11.259Z,9.13
2022-08-30T18:46:51.229Z,8.85
2022-08-30T18:49:32.191Z,35.15
2022-08-30T18:51:59.537Z,35.80
2022-08-30T18:54:26.387Z,39.67
2022-08-30T18:56:53.168Z,51.72
2022-08-30T18:59:22.066Z,38.30
2022-08-30T19:01:49.840Z,40.22
2022-08-30T19:04:29.497Z,48.83
2022-08-30T19:07:02.803Z,38.67
2022-08-30T19:09:29.630Z,31.73
2022-08-30T19:11:56.984Z,33.35
2022-08-30T19:14:24.013Z,31.70
2022-08-30T19:16:56.314Z,29.83
2022-08-30T19:19:23.892Z,27.25
2022-08-30T19:21:51.719Z,21.73
2022-08-30T19:24:19.492Z,22.73
2022-08-30T19:26:47.169Z,19.10
2022-08-30T19:29:15.990Z,16.85
2022-08-30T19:31:43.825Z,22.75
2022-08-30T19:34:11.331Z,18.48
2022-08-30T19:36:38.211Z,23.25
2022-08-30T19:39:06.753Z,19.17
2022-08-30T19:41:34.016Z,14.35
2022-08-30T19:44:03.012Z,16.23
2022-08-30T19:46:30.893Z,17.15
2022-08-30T19:49:01.065Z,14.20
2022-08-30T19:51:28.764Z,18.00
2022-08-30T19:53:58.987Z,7.82
2022-08-30T19:56:26.529Z,10.32
2022-08-30T19:58:53.360Z,8.90
2022-08-30T20:01:33.264Z,9.10
2022-08-30T20:04:04.073Z,12.00
2022-08-30T20:06:32.309Z,12.85
2022-08-30T20:09:00.338Z,7.00
2022-08-30T20:11:27.977Z,7.30
2022-08-30T20:13:54.757Z,8.93
2022-08-30T20:16:21.694Z,7.38
2022-08-30T20:18:59.849Z,8.80
2022-08-30T20:21:27.085Z,7.53
2022-08-30T20:23:58.033Z,6.28
2022-08-30T20:26:30.026Z,9.13
2022-08-30T20:29:01.896Z,6.57
2022-08-30T20:31:29.144Z,8.05
2022-08-30T20:33:56.455Z,6.22
2022-08-30T20:36:23.565Z,6.47
2022-08-30T20:38:51.126Z,6.97
2022-08-30T20:41:30.041Z,8.10
2022-08-30T20:44:06.050Z,8.35
2022-08-30T20:46:44.922Z,8.38
2022-08-30T20:49:22.026Z,9.52
2022-08-30T20:51:56.601Z,7.72
2022-08-30T20:54:28.064Z,9.10
2022-08-30T20:56:59.006Z,7.90
2022-08-30T20:59:30.900Z,5.22
2022-08-30T21:01:59.647Z,6.95
2022-08-30T21:04:27.272Z,5.85
2022-08-30T21:06:54.093Z,5.75
2022-08-30T21:09:20.901Z,7.03
2022-08-30T21:11:47.980Z,6.03
2022-08-30T21:14:14.917Z,5.93
2022-08-30T21:16:41.859Z,6.13
2022-08-30T21:19:09.229Z,4.65
2022-08-30T21:21:36.464Z,3.80
2022-08-30T21:24:10.378Z,4.43
2022-08-30T21:26:39.900Z,6.28
2022-08-30T21:29:07.953Z,5.75
2022-08-30T21:31:37.860Z,3.35
2022-08-30T21:34:05.214Z,4.55
2022-08-30T21:36:47.296Z,4.38
2022-08-30T21:39:26.297Z,5.40
2022-08-30T21:41:56.950Z,6.30
2022-08-30T21:44:26.824Z,3.45
2022-08-30T21:46:54.211Z,4.40
2022-08-30T21:49:23.355Z,4.93
2022-08-30T21:51:51.915Z,3.78
2022-08-30T21:54:19.303Z,6.32
2022-08-30T21:56:48.487Z,7.85
2022-08-30T21:59:15.840Z,4.03
2022-08-30T22:01:43.548Z,5.60
2022-08-30T22:04:12.100Z,3.42
2022-08-30T22:06:41.674Z,4.28
2022-08-30T22:09:13.638Z,4.15
2022-08-30T22:11:42.717Z,6.32
2022-08-30T22:14:10.505Z,6.60
2022-08-30T22:16:40.424Z,6.35
2022-08-30T22:19:07.725Z,5.35
2022-08-30T22:21:37.527Z,4.03
2022-08-30T22:24:05.080Z,5.55
2022-08-30T22:26:33.283Z,5.32
2022-08-30T22:29:00.384Z,3.72
2022-08-30T22:31:27.348Z,8.50
2022-08-30T22:33:55.024Z,3.75
2022-08-30T22:36:32.839Z,4.03
2022-08-30T22:39:01.414Z,5.72
2022-08-30T22:41:31.463Z,3.85
2022-08-30T22:43:58.466Z,2.75
2022-08-30T22:46:33.647Z,6.88
2022-08-30T22:49:03.719Z,8.23
2022-08-30T22:51:30.619Z,6.03
2022-08-30T22:53:57.737Z,4.78
2022-08-30T22:56:26.061Z,4.40
2022-08-30T22:58:55.085Z,5.53
2022-08-30T23:01:31.902Z,4.20
2022-08-30T23:04:01.218Z,7.50
2022-08-30T23:06:29.463Z,3.25
2022-08-30T23:08:56.578Z,2.90
2022-08-30T23:11:23.608Z,3.40
2022-08-30T23:13:51.743Z,4.00
2022-08-30T23:16:20.224Z,7.07
2022-08-30T23:18:47.746Z,3.88
2022-08-30T23:21:24.713Z,5.55
2022-08-30T23:24:12.501Z,2.63
2022-08-30T23:26:59.880Z,5.97
2022-08-30T23:29:45.805Z,6.78
2022-08-30T23:32:31.869Z,3.97
2022-08-30T23:35:17.747Z,3.03
2022-08-30T23:38:05.352Z,5.10
2022-08-30T23:40:50.836Z,3.65
2022-08-30T23:43:36.462Z,3.80
2022-08-30T23:46:22.480Z,3.33
2022-08-30T23:49:08.911Z,4.15
2022-08-30T23:51:55.993Z,4.90
2022-08-30T23:54:42.639Z,3.83
2022-08-30T23:57:28.128Z,5.88
